Terminal Aerodrome Forecast
Issued by NWS

Home | Current Version | Previous Version | Graphics & Text | Print | Product List | Glossary On
Versions: 1 2 3 4 5 6 7 8 9 10 11 12 13 14 15 16 17
887
FTUS43 KABR 210100 AAA
TAFPIR
TAF AMD
KPIR 210100Z 2101/2124 15011KT P6SM SCT250
     FM210700 26010KT P6SM SCT250
     FM211400 30017G25KT P6SM VCSH OVC050
     FM212000 30017G24KT P6SM SCT250=

USA.gov is the U.S. government's official web portal to all federal, state and local government web resources and services.